This is the latest recevied weather packets stored in our database for station/object WB9FIU. If no packets are shown the sender has not sent any weather packets the latest 1 day(s).
| Time | Temp. | Humidity | Pressure | Rain* | Wind** | Luminosity | Snow |
|---|---|---|---|---|---|---|---|
| 1778023141 | 11.67° C | 94% | 1007 hPa | 7.37 mm | - | - | - |
| 1778022901 | 11.67° C | 94% | 1006.6 hPa | 7.87 mm | - | - | - |
| 1778022062 | 12.78° C | 94% | 1006.1 hPa | 7.62 mm | - | - | - |
| 1778021942 | 12.78° C | 93% | 1006 hPa | 7.62 mm | - | - | - |
| 1778021822 | 12.78° C | 93% | 1006.1 hPa | 7.37 mm | - | - | - |
| 1778021762 | 12.78° C | 93% | 1006.2 hPa | 7.37 mm | - | - | - |
| 1778021401 | 13.33° C | 93% | 1006.4 hPa | 6.1 mm | - | - | - |
| 1778020861 | 15° C | 90% | 1005.7 hPa | 4.83 mm | - | - | - |
| 1778020022 | 16.67° C | 94% | 1005.4 hPa | 1.78 mm | - | - | - |
| 1778019181 | 16.67° C | 93% | 1005.3 hPa | 1.27 mm | - | - | - |
| 1778018882 | 16.67° C | 93% | 1005.4 hPa | 1.27 mm | - | - | - |
| 1778018641 | 16.67° C | 93% | 1005.5 hPa | 1.27 mm | - | - | - |
| 1778018462 | 16.11° C | 93% | 1005.5 hPa | 1.02 mm | - | - | - |
| 1778017442 | 16.67° C | 93% | 1005.5 hPa | 1.02 mm | - | - | - |
| 1778017382 | 16.67° C | 93% | 1005.5 hPa | 1.02 mm | - | - | - |
| 1778017322 | 16.67° C | 93% | 1005.5 hPa | 0.76 mm | - | - | - |
| 1778017262 | 16.67° C | 93% | 1005.5 hPa | 0.76 mm | - | - | - |
| 1778017022 | 16.67° C | 93% | 1005.5 hPa | 0.76 mm | - | - | - |
| 1778016783 | 16.67° C | 92% | 1005.5 hPa | 0.51 mm | - | - | - |
| 1778016721 | 16.67° C | 92% | 1005.5 hPa | 0.51 mm | - | - | - |
| 1778016661 | 16.67° C | 92% | 1005.5 hPa | 0.51 mm | - | - | - |
| 1778015582 | 16.67° C | 92% | 1005.6 hPa | 0.25 mm | - | - | - |
| 1778015522 | 16.67° C | 92% | 1005.6 hPa | 0.25 mm | - | - | - |
* Rain latest hour (hover to see other rain measurements)
** Current wind speed in m/s (hover to see current wind gust speed)